Rawlings, Maryland
Current Conditions -  °F | °C
As of 5:06 AM on Thursday 29 Jan 2015 (Local Time) from KCBE Reporting Station
Clear Clear  
Wind Chill: 16°   Ceiling: Unl
Heat Index: 16°   Visibility: 10mi
Dew Point: 12°   Wind: 0mph
Humidity: 86%   Direction: NA
Pressure: 30.32"   Gusts: NA
Location:  39.53°N, 78.88°W
Report Text: KCBE 291006Z AUTO 00000KT 10SM CLR M09/M11 A3032 RMK AO1
Loading
Personal Weather Stations






























Interactive Weather Map New forecast layout! Learn more

10-Day Weather Forecast

Advertisements
Track Severe Weather on mobile